KFTY/FTY METAR and TAF weather

Enter ICAO airport designator
Station Type Date Time Source
KFTY METAR 2019/08/21 21:53 UTC NOAA

KFTY 212153Z VRB06KT 10SM CLR 34/18 A3003 RMK AO2 SLP159 T03390183


Station Type Date Time Source
KFTY Decoded METAR 2019/08/21 21:53 UTC NOAA

Station name not available
Aug 21, 2019 - 05:53 PM EDT / 2019.08.21 2153 UTC
Wind: Variable at 7 MPH (6 KT):0
Visibility: 10 mile(s):0
Sky conditions: clear
Temperature: 93.0 F (33.9 C)
Heat index: 95.0 F (35.0 C):1
Dew Point: 64.9 F (18.3 C)
Relative Humidity: 39%
Pressure (altimeter): 30.03 in. Hg (1016 hPa)
ob: KFTY 212153Z VRB06KT 10SM CLR 34/18 A3003 RMK AO2 SLP159 T03390183
cycle: 22

Station Type Date Time Source
KFTY TAF 2019/08/21 18:30 UTC NOAA

TAF KFTY 211729Z 2118/2218 27006KT P6SM SCT035
FM212000 24007KT P6SM VCSH SCT040
FM220200 23004KT P6SM SCT250
FM221500 26004KT P6SM FEW030
FM221700 25005KT P6SM VCSH SCT040

Example: see airport list